Terminal Aerodrome Forecast
Issued by NWS Grand Forks, ND

Home | Current Version | Previous Version | Graphics & Text | Print | Product List | Glossary On
Versions: 1 2 3 4 5 6 7 8 9 10 11 12 13 14 15 16 17 18 19 20 21 22 23
000
FTUS43 KFGF 290500
TAFGFK
TAF
KGFK 290529Z 2906/3006 33018G24KT P6SM OVC012
     FM291900 34018KT P6SM SCT015 BKN250
     FM300100 36007KT P6SM BKN250=

USA.gov is the U.S. government's official web portal to all federal, state and local government web resources and services.